sensor_id;sensor_type;location;lat;lon;timestamp;P1;durP1;ratioP1;P2;durP2;ratioP2
48487;SDS011;34289;48.572;13.378;2022-11-14T00:01:57;6.97;;;6.28;;
48487;SDS011;34289;48.572;13.378;2022-11-14T00:04:22;8.27;;;7.05;;
48487;SDS011;34289;48.572;13.378;2022-11-14T00:06:48;8.77;;;7.07;;
48487;SDS011;34289;48.572;13.378;2022-11-14T00:09:14;7.63;;;6.43;;
48487;SDS011;34289;48.572;13.378;2022-11-14T00:11:39;8.23;;;6.50;;
48487;SDS011;34289;48.572;13.378;2022-11-14T00:14:05;7.32;;;6.45;;
48487;SDS011;34289;48.572;13.378;2022-11-14T00:16:30;8.57;;;6.07;;
48487;SDS011;34289;48.572;13.378;2022-11-14T00:18:56;8.30;;;6.72;;
48487;SDS011;34289;48.572;13.378;2022-11-14T00:21:22;8.80;;;6.13;;
48487;SDS011;34289;48.572;13.378;2022-11-14T00:23:47;7.00;;;6.28;;
48487;SDS011;34289;48.572;13.378;2022-11-14T00:26:13;7.45;;;6.40;;
48487;SDS011;34289;48.572;13.378;2022-11-14T00:28:38;8.32;;;6.07;;
48487;SDS011;34289;48.572;13.378;2022-11-14T00:31:04;7.43;;;6.63;;
48487;SDS011;34289;48.572;13.378;2022-11-14T00:33:30;9.13;;;6.85;;
48487;SDS011;34289;48.572;13.378;2022-11-14T00:35:55;9.00;;;6.32;;
48487;SDS011;34289;48.572;13.378;2022-11-14T00:38:22;6.57;;;5.88;;
48487;SDS011;34289;48.572;13.378;2022-11-14T00:40:47;11.63;;;7.70;;
48487;SDS011;34289;48.572;13.378;2022-11-14T00:43:13;8.13;;;7.15;;
48487;SDS011;34289;48.572;13.378;2022-11-14T00:45:41;6.75;;;5.55;;
48487;SDS011;34289;48.572;13.378;2022-11-14T00:48:08;6.78;;;6.07;;
48487;SDS011;34289;48.572;13.378;2022-11-14T00:50:33;7.35;;;6.22;;
48487;SDS011;34289;48.572;13.378;2022-11-14T00:52:59;7.90;;;6.40;;
48487;SDS011;34289;48.572;13.378;2022-11-14T00:55:25;7.80;;;6.55;;
48487;SDS011;34289;48.572;13.378;2022-11-14T00:57:50;11.48;;;7.10;;
48487;SDS011;34289;48.572;13.378;2022-11-14T01:00:16;11.63;;;6.75;;
48487;SDS011;34289;48.572;13.378;2022-11-14T01:02:41;9.65;;;6.28;;
48487;SDS011;34289;48.572;13.378;2022-11-14T01:05:07;8.40;;;7.30;;
48487;SDS011;34289;48.572;13.378;2022-11-14T01:07:33;10.98;;;7.65;;
48487;SDS011;34289;48.572;13.378;2022-11-14T01:09:59;9.63;;;7.18;;
48487;SDS011;34289;48.572;13.378;2022-11-14T01:12:24;8.45;;;6.82;;
48487;SDS011;34289;48.572;13.378;2022-11-14T01:14:50;8.68;;;6.78;;
48487;SDS011;34289;48.572;13.378;2022-11-14T01:17:15;10.20;;;7.05;;
48487;SDS011;34289;48.572;13.378;2022-11-14T01:19:41;8.32;;;6.68;;
48487;SDS011;34289;48.572;13.378;2022-11-14T01:22:06;8.38;;;7.47;;
48487;SDS011;34289;48.572;13.378;2022-11-14T01:24:33;8.13;;;6.90;;
48487;SDS011;34289;48.572;13.378;2022-11-14T01:26:58;8.25;;;6.72;;
48487;SDS011;34289;48.572;13.378;2022-11-14T01:29:24;9.05;;;7.32;;
48487;SDS011;34289;48.572;13.378;2022-11-14T01:31:53;8.02;;;7.22;;
48487;SDS011;34289;48.572;13.378;2022-11-14T01:34:19;10.07;;;7.22;;
48487;SDS011;34289;48.572;13.378;2022-11-14T01:36:44;10.98;;;7.03;;
48487;SDS011;34289;48.572;13.378;2022-11-14T01:39:10;8.13;;;6.78;;
48487;SDS011;34289;48.572;13.378;2022-11-14T01:41:38;8.60;;;7.50;;
48487;SDS011;34289;48.572;13.378;2022-11-14T01:44:10;10.10;;;7.45;;
48487;SDS011;34289;48.572;13.378;2022-11-14T01:46:41;6.22;;;5.47;;
48487;SDS011;34289;48.572;13.378;2022-11-14T01:49:14;11.05;;;6.40;;
48487;SDS011;34289;48.572;13.378;2022-11-14T01:51:46;8.27;;;6.55;;
48487;SDS011;34289;48.572;13.378;2022-11-14T01:54:21;8.65;;;7.50;;
48487;SDS011;34289;48.572;13.378;2022-11-14T01:56:55;9.27;;;7.82;;
48487;SDS011;34289;48.572;13.378;2022-11-14T01:59:24;12.52;;;7.80;;
48487;SDS011;34289;48.572;13.378;2022-11-14T02:01:54;8.07;;;7.28;;
48487;SDS011;34289;48.572;13.378;2022-11-14T02:04:22;8.65;;;7.28;;
48487;SDS011;34289;48.572;13.378;2022-11-14T02:06:54;10.35;;;8.20;;
48487;SDS011;34289;48.572;13.378;2022-11-14T02:09:24;8.95;;;7.85;;
48487;SDS011;34289;48.572;13.378;2022-11-14T02:11:51;9.52;;;7.78;;
48487;SDS011;34289;48.572;13.378;2022-11-14T02:14:18;8.73;;;6.95;;
48487;SDS011;34289;48.572;13.378;2022-11-14T02:16:44;8.25;;;7.28;;
48487;SDS011;34289;48.572;13.378;2022-11-14T02:19:12;8.75;;;7.63;;
48487;SDS011;34289;48.572;13.378;2022-11-14T02:21:38;8.27;;;6.97;;
48487;SDS011;34289;48.572;13.378;2022-11-14T02:24:07;8.98;;;7.43;;
48487;SDS011;34289;48.572;13.378;2022-11-14T02:26:34;8.88;;;7.57;;
48487;SDS011;34289;48.572;13.378;2022-11-14T02:28:59;10.75;;;7.22;;
48487;SDS011;34289;48.572;13.378;2022-11-14T02:31:25;8.10;;;6.85;;
48487;SDS011;34289;48.572;13.378;2022-11-14T02:33:50;7.50;;;6.55;;
48487;SDS011;34289;48.572;13.378;2022-11-14T02:36:19;8.15;;;7.15;;
48487;SDS011;34289;48.572;13.378;2022-11-14T02:38:44;8.57;;;7.10;;
48487;SDS011;34289;48.572;13.378;2022-11-14T02:41:10;9.50;;;8.15;;
48487;SDS011;34289;48.572;13.378;2022-11-14T02:43:35;12.10;;;8.82;;
48487;SDS011;34289;48.572;13.378;2022-11-14T02:46:01;10.98;;;8.88;;
48487;SDS011;34289;48.572;13.378;2022-11-14T02:48:27;10.82;;;8.60;;
48487;SDS011;34289;48.572;13.378;2022-11-14T02:50:52;13.27;;;8.93;;
48487;SDS011;34289;48.572;13.378;2022-11-14T02:53:18;11.05;;;7.25;;
48487;SDS011;34289;48.572;13.378;2022-11-14T02:55:43;13.00;;;8.65;;
48487;SDS011;34289;48.572;13.378;2022-11-14T02:58:09;10.48;;;7.93;;
48487;SDS011;34289;48.572;13.378;2022-11-14T03:00:34;9.45;;;7.05;;
48487;SDS011;34289;48.572;13.378;2022-11-14T03:03:00;13.48;;;8.05;;
48487;SDS011;34289;48.572;13.378;2022-11-14T03:05:26;8.93;;;8.02;;
48487;SDS011;34289;48.572;13.378;2022-11-14T03:07:52;11.45;;;7.55;;
48487;SDS011;34289;48.572;13.378;2022-11-14T03:10:18;8.10;;;7.28;;
48487;SDS011;34289;48.572;13.378;2022-11-14T03:12:45;10.73;;;7.88;;
48487;SDS011;34289;48.572;13.378;2022-11-14T03:15:11;9.85;;;7.97;;
48487;SDS011;34289;48.572;13.378;2022-11-14T03:17:36;8.73;;;7.82;;
48487;SDS011;34289;48.572;13.378;2022-11-14T03:20:02;15.18;;;8.13;;
48487;SDS011;34289;48.572;13.378;2022-11-14T03:22:28;9.35;;;7.00;;
48487;SDS011;34289;48.572;13.378;2022-11-14T03:24:54;10.30;;;7.72;;
48487;SDS011;34289;48.572;13.378;2022-11-14T03:27:20;9.10;;;7.22;;
48487;SDS011;34289;48.572;13.378;2022-11-14T03:29:49;9.27;;;7.40;;
48487;SDS011;34289;48.572;13.378;2022-11-14T03:32:14;10.30;;;7.35;;
48487;SDS011;34289;48.572;13.378;2022-11-14T03:34:41;9.95;;;8.38;;
48487;SDS011;34289;48.572;13.378;2022-11-14T03:37:06;8.35;;;7.45;;
48487;SDS011;34289;48.572;13.378;2022-11-14T03:39:35;10.30;;;7.65;;
48487;SDS011;34289;48.572;13.378;2022-11-14T03:42:01;9.63;;;8.13;;
48487;SDS011;34289;48.572;13.378;2022-11-14T03:44:27;10.90;;;6.85;;
48487;SDS011;34289;48.572;13.378;2022-11-14T03:46:52;8.18;;;7.07;;
48487;SDS011;34289;48.572;13.378;2022-11-14T03:49:18;8.75;;;7.85;;
48487;SDS011;34289;48.572;13.378;2022-11-14T03:51:43;9.77;;;7.85;;
48487;SDS011;34289;48.572;13.378;2022-11-14T03:54:09;9.05;;;7.57;;
48487;SDS011;34289;48.572;13.378;2022-11-14T03:56:35;8.18;;;6.80;;
48487;SDS011;34289;48.572;13.378;2022-11-14T03:59:00;9.52;;;7.28;;
48487;SDS011;34289;48.572;13.378;2022-11-14T04:01:26;7.20;;;6.25;;
48487;SDS011;34289;48.572;13.378;2022-11-14T04:03:53;11.65;;;7.75;;
48487;SDS011;34289;48.572;13.378;2022-11-14T04:06:18;7.53;;;6.72;;
48487;SDS011;34289;48.572;13.378;2022-11-14T04:08:44;9.20;;;7.03;;
48487;SDS011;34289;48.572;13.378;2022-11-14T04:11:10;8.10;;;7.30;;
48487;SDS011;34289;48.572;13.378;2022-11-14T04:13:36;9.50;;;7.63;;
48487;SDS011;34289;48.572;13.378;2022-11-14T04:16:01;8.95;;;7.40;;
48487;SDS011;34289;48.572;13.378;2022-11-14T04:18:27;8.95;;;6.78;;
48487;SDS011;34289;48.572;13.378;2022-11-14T04:20:53;12.35;;;7.05;;
48487;SDS011;34289;48.572;13.378;2022-11-14T04:23:18;8.57;;;6.38;;
48487;SDS011;34289;48.572;13.378;2022-11-14T04:25:44;9.13;;;7.18;;
48487;SDS011;34289;48.572;13.378;2022-11-14T04:28:10;12.23;;;9.27;;
48487;SDS011;34289;48.572;13.378;2022-11-14T04:30:37;9.05;;;6.95;;
48487;SDS011;34289;48.572;13.378;2022-11-14T04:33:03;10.02;;;6.93;;
48487;SDS011;34289;48.572;13.378;2022-11-14T04:35:28;8.85;;;7.45;;
48487;SDS011;34289;48.572;13.378;2022-11-14T04:37:54;8.00;;;7.20;;
48487;SDS011;34289;48.572;13.378;2022-11-14T04:40:20;8.95;;;6.95;;
48487;SDS011;34289;48.572;13.378;2022-11-14T04:42:46;12.48;;;6.63;;
48487;SDS011;34289;48.572;13.378;2022-11-14T04:45:12;7.35;;;6.55;;
48487;SDS011;34289;48.572;13.378;2022-11-14T04:47:40;9.20;;;7.38;;
48487;SDS011;34289;48.572;13.378;2022-11-14T04:50:06;8.57;;;6.88;;
48487;SDS011;34289;48.572;13.378;2022-11-14T04:52:32;10.45;;;7.50;;
48487;SDS011;34289;48.572;13.378;2022-11-14T04:54:58;10.65;;;7.25;;
48487;SDS011;34289;48.572;13.378;2022-11-14T04:57:24;9.75;;;7.55;;
48487;SDS011;34289;48.572;13.378;2022-11-14T04:59:50;10.23;;;7.18;;
48487;SDS011;34289;48.572;13.378;2022-11-14T05:02:15;10.23;;;7.45;;
48487;SDS011;34289;48.572;13.378;2022-11-14T05:04:41;8.85;;;7.63;;
48487;SDS011;34289;48.572;13.378;2022-11-14T05:07:08;10.25;;;7.80;;
48487;SDS011;34289;48.572;13.378;2022-11-14T05:09:34;7.55;;;6.68;;
48487;SDS011;34289;48.572;13.378;2022-11-14T05:12:00;10.73;;;8.30;;
48487;SDS011;34289;48.572;13.378;2022-11-14T05:14:27;8.70;;;7.70;;
48487;SDS011;34289;48.572;13.378;2022-11-14T05:16:52;8.32;;;7.00;;
48487;SDS011;34289;48.572;13.378;2022-11-14T05:19:18;8.55;;;7.63;;
48487;SDS011;34289;48.572;13.378;2022-11-14T05:21:44;7.90;;;7.00;;
48487;SDS011;34289;48.572;13.378;2022-11-14T05:24:09;9.43;;;7.63;;
48487;SDS011;34289;48.572;13.378;2022-11-14T05:26:35;8.05;;;7.25;;
48487;SDS011;34289;48.572;13.378;2022-11-14T05:29:01;10.80;;;7.95;;
48487;SDS011;34289;48.572;13.378;2022-11-14T05:31:27;9.95;;;7.15;;
48487;SDS011;34289;48.572;13.378;2022-11-14T05:33:52;10.10;;;6.90;;
48487;SDS011;34289;48.572;13.378;2022-11-14T05:36:18;9.48;;;7.85;;
48487;SDS011;34289;48.572;13.378;2022-11-14T05:38:46;9.38;;;7.28;;
48487;SDS011;34289;48.572;13.378;2022-11-14T05:41:14;8.75;;;7.03;;
48487;SDS011;34289;48.572;13.378;2022-11-14T05:43:41;8.15;;;6.47;;
48487;SDS011;34289;48.572;13.378;2022-11-14T05:46:11;9.50;;;6.90;;
48487;SDS011;34289;48.572;13.378;2022-11-14T05:48:38;10.00;;;7.60;;
48487;SDS011;34289;48.572;13.378;2022-11-14T05:51:05;9.18;;;6.95;;
48487;SDS011;34289;48.572;13.378;2022-11-14T05:53:31;9.23;;;7.18;;
48487;SDS011;34289;48.572;13.378;2022-11-14T05:56:05;7.72;;;6.93;;
48487;SDS011;34289;48.572;13.378;2022-11-14T05:58:33;7.60;;;6.80;;
48487;SDS011;34289;48.572;13.378;2022-11-14T06:01:03;7.88;;;6.43;;
48487;SDS011;34289;48.572;13.378;2022-11-14T06:03:39;9.77;;;7.93;;
48487;SDS011;34289;48.572;13.378;2022-11-14T06:06:08;12.00;;;7.40;;
48487;SDS011;34289;48.572;13.378;2022-11-14T06:08:35;9.82;;;7.47;;
48487;SDS011;34289;48.572;13.378;2022-11-14T06:11:02;11.18;;;8.60;;
48487;SDS011;34289;48.572;13.378;2022-11-14T06:13:33;9.20;;;7.82;;
48487;SDS011;34289;48.572;13.378;2022-11-14T06:16:00;8.98;;;7.70;;
48487;SDS011;34289;48.572;13.378;2022-11-14T06:18:26;10.32;;;7.63;;
48487;SDS011;34289;48.572;13.378;2022-11-14T06:20:53;14.32;;;7.80;;
48487;SDS011;34289;48.572;13.378;2022-11-14T06:23:18;12.25;;;7.90;;
48487;SDS011;34289;48.572;13.378;2022-11-14T06:25:44;12.98;;;10.98;;
48487;SDS011;34289;48.572;13.378;2022-11-14T06:28:09;15.32;;;11.80;;
48487;SDS011;34289;48.572;13.378;2022-11-14T06:30:35;9.77;;;7.28;;
48487;SDS011;34289;48.572;13.378;2022-11-14T06:33:02;7.97;;;6.50;;
48487;SDS011;34289;48.572;13.378;2022-11-14T06:35:28;10.10;;;6.90;;
48487;SDS011;34289;48.572;13.378;2022-11-14T06:37:53;14.60;;;8.85;;
48487;SDS011;34289;48.572;13.378;2022-11-14T06:40:19;11.50;;;8.70;;
48487;SDS011;34289;48.572;13.378;2022-11-14T06:42:44;9.75;;;8.60;;
48487;SDS011;34289;48.572;13.378;2022-11-14T06:45:10;11.25;;;8.68;;
48487;SDS011;34289;48.572;13.378;2022-11-14T06:47:35;8.50;;;7.10;;
48487;SDS011;34289;48.572;13.378;2022-11-14T06:50:01;8.13;;;6.65;;
48487;SDS011;34289;48.572;13.378;2022-11-14T06:52:27;7.68;;;6.85;;
48487;SDS011;34289;48.572;13.378;2022-11-14T06:54:52;7.40;;;5.85;;
48487;SDS011;34289;48.572;13.378;2022-11-14T06:57:21;5.45;;;4.55;;
48487;SDS011;34289;48.572;13.378;2022-11-14T06:59:46;7.25;;;4.97;;
48487;SDS011;34289;48.572;13.378;2022-11-14T07:02:12;13.60;;;5.88;;
48487;SDS011;34289;48.572;13.378;2022-11-14T07:04:38;7.30;;;6.00;;
48487;SDS011;34289;48.572;13.378;2022-11-14T07:07:03;5.70;;;5.20;;
48487;SDS011;34289;48.572;13.378;2022-11-14T07:09:29;5.18;;;4.78;;
48487;SDS011;34289;48.572;13.378;2022-11-14T07:11:54;6.93;;;5.70;;
48487;SDS011;34289;48.572;13.378;2022-11-14T07:14:20;6.45;;;5.75;;
48487;SDS011;34289;48.572;13.378;2022-11-14T07:16:46;6.13;;;5.63;;
48487;SDS011;34289;48.572;13.378;2022-11-14T07:19:12;6.30;;;5.75;;
48487;SDS011;34289;48.572;13.378;2022-11-14T07:21:38;7.20;;;6.60;;
48487;SDS011;34289;48.572;13.378;2022-11-14T07:24:04;5.97;;;5.47;;
48487;SDS011;34289;48.572;13.378;2022-11-14T07:26:30;5.85;;;5.20;;
48487;SDS011;34289;48.572;13.378;2022-11-14T07:28:56;8.65;;;5.85;;
48487;SDS011;34289;48.572;13.378;2022-11-14T07:31:21;8.85;;;6.15;;
48487;SDS011;34289;48.572;13.378;2022-11-14T07:33:47;5.80;;;5.25;;
48487;SDS011;34289;48.572;13.378;2022-11-14T07:36:13;5.93;;;5.32;;
48487;SDS011;34289;48.572;13.378;2022-11-14T07:38:40;7.45;;;6.75;;
48487;SDS011;34289;48.572;13.378;2022-11-14T07:41:07;7.38;;;6.40;;
48487;SDS011;34289;48.572;13.378;2022-11-14T07:43:34;6.90;;;6.30;;
48487;SDS011;34289;48.572;13.378;2022-11-14T07:46:20;6.38;;;5.88;;
48487;SDS011;34289;48.572;13.378;2022-11-14T07:48:45;7.50;;;6.75;;
48487;SDS011;34289;48.572;13.378;2022-11-14T07:51:15;7.07;;;6.38;;
48487;SDS011;34289;48.572;13.378;2022-11-14T07:53:42;7.27;;;6.50;;
48487;SDS011;34289;48.572;13.378;2022-11-14T07:56:08;7.18;;;6.55;;
48487;SDS011;34289;48.572;13.378;2022-11-14T07:58:34;6.80;;;6.30;;
48487;SDS011;34289;48.572;13.378;2022-11-14T08:01:01;7.85;;;6.20;;
48487;SDS011;34289;48.572;13.378;2022-11-14T08:03:28;7.15;;;6.50;;
48487;SDS011;34289;48.572;13.378;2022-11-14T08:06:03;6.55;;;5.97;;
48487;SDS011;34289;48.572;13.378;2022-11-14T08:08:31;7.97;;;6.65;;
48487;SDS011;34289;48.572;13.378;2022-11-14T08:10:57;6.65;;;5.80;;
48487;SDS011;34289;48.572;13.378;2022-11-14T08:13:24;9.63;;;5.63;;
48487;SDS011;34289;48.572;13.378;2022-11-14T08:15:50;6.47;;;5.88;;
48487;SDS011;34289;48.572;13.378;2022-11-14T08:18:16;7.63;;;5.45;;
48487;SDS011;34289;48.572;13.378;2022-11-14T08:20:41;5.70;;;5.13;;
48487;SDS011;34289;48.572;13.378;2022-11-14T08:23:08;5.97;;;5.47;;
48487;SDS011;34289;48.572;13.378;2022-11-14T08:25:34;5.88;;;5.20;;
48487;SDS011;34289;48.572;13.378;2022-11-14T08:28:00;6.28;;;5.68;;
48487;SDS011;34289;48.572;13.378;2022-11-14T08:30:26;5.70;;;5.20;;
48487;SDS011;34289;48.572;13.378;2022-11-14T08:32:52;6.35;;;5.75;;
48487;SDS011;34289;48.572;13.378;2022-11-14T08:35:18;6.65;;;6.07;;
48487;SDS011;34289;48.572;13.378;2022-11-14T08:37:44;8.65;;;5.95;;
48487;SDS011;34289;48.572;13.378;2022-11-14T08:40:10;8.20;;;5.95;;
48487;SDS011;34289;48.572;13.378;2022-11-14T08:42:36;6.95;;;5.95;;
48487;SDS011;34289;48.572;13.378;2022-11-14T08:45:02;7.20;;;6.55;;
48487;SDS011;34289;48.572;13.378;2022-11-14T08:47:28;7.15;;;6.45;;
48487;SDS011;34289;48.572;13.378;2022-11-14T08:49:54;7.68;;;7.00;;
48487;SDS011;34289;48.572;13.378;2022-11-14T08:52:20;7.70;;;7.07;;
48487;SDS011;34289;48.572;13.378;2022-11-14T08:54:46;7.80;;;7.20;;
48487;SDS011;34289;48.572;13.378;2022-11-14T08:57:11;9.48;;;6.75;;
48487;SDS011;34289;48.572;13.378;2022-11-14T08:59:39;7.57;;;6.97;;
48487;SDS011;34289;48.572;13.378;2022-11-14T09:02:05;8.82;;;7.93;;
48487;SDS011;34289;48.572;13.378;2022-11-14T09:04:31;7.97;;;7.35;;
48487;SDS011;34289;48.572;13.378;2022-11-14T09:06:56;7.47;;;6.88;;
48487;SDS011;34289;48.572;13.378;2022-11-14T09:09:22;8.13;;;7.50;;
48487;SDS011;34289;48.572;13.378;2022-11-14T09:11:48;8.35;;;7.53;;
48487;SDS011;34289;48.572;13.378;2022-11-14T09:14:14;9.20;;;8.30;;
48487;SDS011;34289;48.572;13.378;2022-11-14T09:16:39;9.00;;;8.30;;
48487;SDS011;34289;48.572;13.378;2022-11-14T09:19:05;8.50;;;7.45;;
48487;SDS011;34289;48.572;13.378;2022-11-14T09:21:31;7.95;;;7.25;;
48487;SDS011;34289;48.572;13.378;2022-11-14T09:23:56;7.70;;;7.00;;
48487;SDS011;34289;48.572;13.378;2022-11-14T09:26:22;6.47;;;5.97;;
48487;SDS011;34289;48.572;13.378;2022-11-14T09:28:47;7.10;;;6.50;;
48487;SDS011;34289;48.572;13.378;2022-11-14T09:31:13;7.78;;;7.03;;
48487;SDS011;34289;48.572;13.378;2022-11-14T09:33:39;8.80;;;8.00;;
48487;SDS011;34289;48.572;13.378;2022-11-14T09:36:05;9.23;;;8.52;;
48487;SDS011;34289;48.572;13.378;2022-11-14T09:38:35;8.68;;;7.97;;
48487;SDS011;34289;48.572;13.378;2022-11-14T09:46:30;7.10;;;6.57;;
48487;SDS011;34289;48.572;13.378;2022-11-14T09:49:08;7.53;;;7.03;;
48487;SDS011;34289;48.572;13.378;2022-11-14T09:51:53;7.40;;;6.90;;
48487;SDS011;34289;48.572;13.378;2022-11-14T09:54:28;6.72;;;6.32;;
48487;SDS011;34289;48.572;13.378;2022-11-14T09:57:02;7.75;;;7.18;;
48487;SDS011;34289;48.572;13.378;2022-11-14T09:59:27;7.00;;;6.50;;
48487;SDS011;34289;48.572;13.378;2022-11-14T10:05:51;6.82;;;6.30;;
48487;SDS011;34289;48.572;13.378;2022-11-14T10:10:48;7.07;;;6.57;;
48487;SDS011;34289;48.572;13.378;2022-11-14T10:21:37;9.00;;;8.38;;
48487;SDS011;34289;48.572;13.378;2022-11-14T10:27:04;9.60;;;8.80;;
48487;SDS011;34289;48.572;13.378;2022-11-14T10:32:43;9.48;;;8.88;;
48487;SDS011;34289;48.572;13.378;2022-11-14T10:35:39;9.27;;;8.68;;
48487;SDS011;34289;48.572;13.378;2022-11-14T10:41:15;10.07;;;9.18;;
48487;SDS011;34289;48.572;13.378;2022-11-14T10:43:45;8.35;;;7.65;;
48487;SDS011;34289;48.572;13.378;2022-11-14T10:46:16;9.63;;;8.98;;
48487;SDS011;34289;48.572;13.378;2022-11-14T10:48:50;9.63;;;8.93;;
48487;SDS011;34289;48.572;13.378;2022-11-14T10:51:21;9.93;;;9.18;;
48487;SDS011;34289;48.572;13.378;2022-11-14T10:56:24;9.07;;;8.18;;
48487;SDS011;34289;48.572;13.378;2022-11-14T10:58:49;9.55;;;8.75;;
48487;SDS011;34289;48.572;13.378;2022-11-14T11:03:56;8.80;;;8.20;;
48487;SDS011;34289;48.572;13.378;2022-11-14T11:06:25;9.07;;;8.38;;
48487;SDS011;34289;48.572;13.378;2022-11-14T11:08:51;9.90;;;9.10;;
48487;SDS011;34289;48.572;13.378;2022-11-14T11:11:39;8.80;;;8.20;;
48487;SDS011;34289;48.572;13.378;2022-11-14T11:14:13;14.75;;;9.38;;
48487;SDS011;34289;48.572;13.378;2022-11-14T11:16:41;8.98;;;8.18;;
48487;SDS011;34289;48.572;13.378;2022-11-14T11:19:14;9.02;;;8.43;;
48487;SDS011;34289;48.572;13.378;2022-11-14T11:21:47;7.82;;;7.28;;
48487;SDS011;34289;48.572;13.378;2022-11-14T11:24:31;6.50;;;6.00;;
48487;SDS011;34289;48.572;13.378;2022-11-14T11:29:42;7.10;;;6.50;;
48487;SDS011;34289;48.572;13.378;2022-11-14T11:32:08;8.52;;;7.80;;
48487;SDS011;34289;48.572;13.378;2022-11-14T11:34:36;7.95;;;6.35;;
48487;SDS011;34289;48.572;13.378;2022-11-14T11:37:21;7.00;;;6.40;;
48487;SDS011;34289;48.572;13.378;2022-11-14T11:39:55;8.60;;;6.40;;
48487;SDS011;34289;48.572;13.378;2022-11-14T11:42:27;7.60;;;6.88;;
48487;SDS011;34289;48.572;13.378;2022-11-14T11:44:59;7.35;;;6.60;;
48487;SDS011;34289;48.572;13.378;2022-11-14T11:47:29;8.63;;;7.38;;
48487;SDS011;34289;48.572;13.378;2022-11-14T11:49:58;8.20;;;7.40;;
48487;SDS011;34289;48.572;13.378;2022-11-14T11:55:04;9.13;;;8.20;;
48487;SDS011;34289;48.572;13.378;2022-11-14T11:58:10;8.95;;;8.13;;
48487;SDS011;34289;48.572;13.378;2022-11-14T12:00:52;9.25;;;8.55;;
48487;SDS011;34289;48.572;13.378;2022-11-14T12:03:21;9.73;;;8.77;;
48487;SDS011;34289;48.572;13.378;2022-11-14T12:05:52;9.40;;;8.80;;
48487;SDS011;34289;48.572;13.378;2022-11-14T12:11:29;8.65;;;7.97;;
48487;SDS011;34289;48.572;13.378;2022-11-14T12:14:22;8.93;;;8.23;;
48487;SDS011;34289;48.572;13.378;2022-11-14T12:17:03;9.27;;;8.48;;
48487;SDS011;34289;48.572;13.378;2022-11-14T12:20:07;10.23;;;9.18;;
48487;SDS011;34289;48.572;13.378;2022-11-14T12:31:23;8.93;;;8.32;;
48487;SDS011;34289;48.572;13.378;2022-11-14T12:33:56;9.13;;;8.52;;
48487;SDS011;34289;48.572;13.378;2022-11-14T12:36:30;9.88;;;7.80;;
48487;SDS011;34289;48.572;13.378;2022-11-14T12:38:58;8.88;;;8.18;;
48487;SDS011;34289;48.572;13.378;2022-11-14T12:41:27;9.00;;;8.23;;
48487;SDS011;34289;48.572;13.378;2022-11-14T12:55:18;8.80;;;8.10;;
48487;SDS011;34289;48.572;13.378;2022-11-14T13:00:37;8.40;;;7.80;;
48487;SDS011;34289;48.572;13.378;2022-11-14T13:06:08;8.10;;;7.50;;
48487;SDS011;34289;48.572;13.378;2022-11-14T13:08:45;7.95;;;7.45;;
48487;SDS011;34289;48.572;13.378;2022-11-14T13:11:34;7.57;;;7.07;;
48487;SDS011;34289;48.572;13.378;2022-11-14T13:14:22;8.90;;;7.30;;
48487;SDS011;34289;48.572;13.378;2022-11-14T13:17:15;7.65;;;7.10;;
48487;SDS011;34289;48.572;13.378;2022-11-14T13:26:35;8.77;;;8.07;;
48487;SDS011;34289;48.572;13.378;2022-11-14T13:31:21;8.90;;;8.00;;
48487;SDS011;34289;48.572;13.378;2022-11-14T13:42:58;8.02;;;7.32;;
48487;SDS011;34289;48.572;13.378;2022-11-14T13:50:48;7.70;;;6.90;;
48487;SDS011;34289;48.572;13.378;2022-11-14T13:53:21;7.32;;;6.82;;
48487;SDS011;34289;48.572;13.378;2022-11-14T13:55:54;6.80;;;6.40;;
48487;SDS011;34289;48.572;13.378;2022-11-14T14:01:14;7.75;;;7.07;;
48487;SDS011;34289;48.572;13.378;2022-11-14T14:15:18;6.80;;;6.30;;
48487;SDS011;34289;48.572;13.378;2022-11-14T14:20:39;6.68;;;6.18;;
48487;SDS011;34289;48.572;13.378;2022-11-14T14:26:19;6.90;;;5.30;;
48487;SDS011;34289;48.572;13.378;2022-11-14T14:32:10;5.20;;;4.80;;
48487;SDS011;34289;48.572;13.378;2022-11-14T14:34:40;6.32;;;5.82;;
48487;SDS011;34289;48.572;13.378;2022-11-14T14:37:48;17.90;;;5.40;;
48487;SDS011;34289;48.572;13.378;2022-11-14T14:39:59;6.50;;;5.18;;
48487;SDS011;34289;48.572;13.378;2022-11-14T14:42:29;7.45;;;5.13;;
48487;SDS011;34289;48.572;13.378;2022-11-14T14:45:14;5.72;;;5.22;;
48487;SDS011;34289;48.572;13.378;2022-11-14T14:47:43;9.13;;;5.80;;
48487;SDS011;34289;48.572;13.378;2022-11-14T14:50:15;7.22;;;5.40;;
48487;SDS011;34289;48.572;13.378;2022-11-14T14:52:43;7.05;;;6.35;;
48487;SDS011;34289;48.572;13.378;2022-11-14T14:55:20;8.07;;;6.15;;
48487;SDS011;34289;48.572;13.378;2022-11-14T14:57:51;5.70;;;5.20;;
48487;SDS011;34289;48.572;13.378;2022-11-14T15:00:20;10.00;;;6.00;;
48487;SDS011;34289;48.572;13.378;2022-11-14T15:02:47;8.40;;;6.20;;
48487;SDS011;34289;48.572;13.378;2022-11-14T15:05:26;6.40;;;5.43;;
48487;SDS011;34289;48.572;13.378;2022-11-14T15:07:57;6.88;;;5.40;;
48487;SDS011;34289;48.572;13.378;2022-11-14T15:10:25;9.45;;;5.38;;
48487;SDS011;34289;48.572;13.378;2022-11-14T15:12:56;6.00;;;5.40;;
48487;SDS011;34289;48.572;13.378;2022-11-14T15:15:22;8.52;;;4.82;;
48487;SDS011;34289;48.572;13.378;2022-11-14T15:17:49;6.90;;;4.93;;
48487;SDS011;34289;48.572;13.378;2022-11-14T15:20:21;6.43;;;5.22;;
48487;SDS011;34289;48.572;13.378;2022-11-14T15:23:01;7.95;;;5.20;;
48487;SDS011;34289;48.572;13.378;2022-11-14T15:25:38;6.63;;;4.82;;
48487;SDS011;34289;48.572;13.378;2022-11-14T15:28:15;5.95;;;5.28;;
48487;SDS011;34289;48.572;13.378;2022-11-14T15:30:54;8.80;;;5.47;;
48487;SDS011;34289;48.572;13.378;2022-11-14T15:33:26;5.55;;;4.82;;
48487;SDS011;34289;48.572;13.378;2022-11-14T15:36:08;5.93;;;5.00;;
48487;SDS011;34289;48.572;13.378;2022-11-14T15:38:34;5.53;;;4.85;;
48487;SDS011;34289;48.572;13.378;2022-11-14T15:41:14;12.98;;;6.40;;
48487;SDS011;34289;48.572;13.378;2022-11-14T15:49:08;10.32;;;4.70;;
48487;SDS011;34289;48.572;13.378;2022-11-14T15:51:48;9.27;;;4.82;;
48487;SDS011;34289;48.572;13.378;2022-11-14T15:54:39;9.57;;;4.78;;
48487;SDS011;34289;48.572;13.378;2022-11-14T15:57:13;8.82;;;4.93;;
48487;SDS011;34289;48.572;13.378;2022-11-14T15:59:40;6.07;;;4.72;;
48487;SDS011;34289;48.572;13.378;2022-11-14T16:02:11;12.95;;;4.40;;
48487;SDS011;34289;48.572;13.378;2022-11-14T16:04:41;6.85;;;4.65;;
48487;SDS011;34289;48.572;13.378;2022-11-14T16:07:09;7.82;;;4.18;;
48487;SDS011;34289;48.572;13.378;2022-11-14T16:09:37;4.82;;;4.35;;
48487;SDS011;34289;48.572;13.378;2022-11-14T16:12:03;8.43;;;5.68;;
48487;SDS011;34289;48.572;13.378;2022-11-14T16:14:29;5.03;;;4.25;;
48487;SDS011;34289;48.572;13.378;2022-11-14T16:16:55;5.05;;;4.28;;
48487;SDS011;34289;48.572;13.378;2022-11-14T16:19:20;9.43;;;4.95;;
48487;SDS011;34289;48.572;13.378;2022-11-14T16:21:46;12.15;;;8.38;;
48487;SDS011;34289;48.572;13.378;2022-11-14T16:24:19;44.83;;;28.88;;
48487;SDS011;34289;48.572;13.378;2022-11-14T16:26:46;34.67;;;21.73;;
48487;SDS011;34289;48.572;13.378;2022-11-14T16:29:13;19.77;;;13.75;;
48487;SDS011;34289;48.572;13.378;2022-11-14T16:31:39;12.98;;;8.05;;
48487;SDS011;34289;48.572;13.378;2022-11-14T16:34:05;12.80;;;9.82;;
48487;SDS011;34289;48.572;13.378;2022-11-14T16:36:32;5.65;;;4.40;;
48487;SDS011;34289;48.572;13.378;2022-11-14T16:38:58;7.32;;;5.13;;
48487;SDS011;34289;48.572;13.378;2022-11-14T16:41:26;9.32;;;6.07;;